Portada
METAR-TAF:

METAR-TAF

Aeroports :

Aeroport de Lugano

Lugano, Suïssa

latitud: 46-00N, longitud: 008-58E, altitud: 273 m

Observació

L'informe es va fer fa 19 minuts, a les 06:20 UTC
Vent 2 kt amb direcció variable
Temperatura 5°C
Humitat 93%
Pressió 1013 hPa
Visibilitat 10 km o més
Cel ennuvolat a una alçada de 11000 ft

METAR: LSZA 290620Z VRB02KT 9999 BKN110 05/04 Q1013 NOSIG

Hora: 08:39 (06:39 UTC)

Pronòstic

L'informe es va fer fa 1 hora i 14 minuts, a les 05:25 UTC
Pronòstic vàlid del 29 a les 06 UTC al 29 a les 15 UTC
Vent 3 kt amb direcció variable
Visibilitat 10 km o més
Núvols disperses a una alçada de 11000 ft
Temporalment
l' 29 a les 09 UTC al 29 a les 15 UTC
Vent 10 kt del Sud/Sud-Est

TAF: LSZA 290525Z 2906/2915 VRB03KT 9999 SCT110 TEMPO 2909/2915 16010KT

Observacions i pronòstics meteorològics de més de 4000 aeroports (METAR i TAF).

Les estacions disponibles són els punts grocs i vermells al mapa.

Posi el ratolí al punt desitjat per veure el nom de l'estació.

Feu clic per veure les observacions i els pronòstics meteorològics.

Per canviar el mapa: feu clic els botons verds amb una creu de color negre per apropar; al botó verd amb un guió per allunyar la imatge; o en les fletxes verdes per a mapes adjacents.


METAR-TAF: